sensor_id;sensor_type;location;lat;lon;timestamp;P1;durP1;ratioP1;P2;durP2;ratioP2
69053;SDS011;56125;52.242;4.756;2023-11-21T00:03:16;7.10;;;2.30;;
69053;SDS011;56125;52.242;4.756;2023-11-21T00:08:19;2.40;;;1.58;;
69053;SDS011;56125;52.242;4.756;2023-11-21T00:13:20;3.60;;;2.13;;
69053;SDS011;56125;52.242;4.756;2023-11-21T00:18:21;4.15;;;2.08;;
69053;SDS011;56125;52.242;4.756;2023-11-21T00:23:22;3.33;;;1.90;;
69053;SDS011;56125;52.242;4.756;2023-11-21T00:28:24;3.35;;;1.92;;
69053;SDS011;56125;52.242;4.756;2023-11-21T00:33:26;4.47;;;2.17;;
69053;SDS011;56125;52.242;4.756;2023-11-21T00:38:27;4.00;;;1.83;;
69053;SDS011;56125;52.242;4.756;2023-11-21T00:43:28;4.17;;;1.70;;
69053;SDS011;56125;52.242;4.756;2023-11-21T00:48:29;3.53;;;1.90;;
69053;SDS011;56125;52.242;4.756;2023-11-21T00:53:30;3.83;;;1.63;;
69053;SDS011;56125;52.242;4.756;2023-11-21T00:58:32;4.35;;;1.92;;
69053;SDS011;56125;52.242;4.756;2023-11-21T01:03:33;4.87;;;1.70;;
69053;SDS011;56125;52.242;4.756;2023-11-21T01:08:34;3.33;;;1.95;;
69053;SDS011;56125;52.242;4.756;2023-11-21T01:13:36;4.47;;;2.23;;
69053;SDS011;56125;52.242;4.756;2023-11-21T01:18:37;4.57;;;1.88;;
69053;SDS011;56125;52.242;4.756;2023-11-21T01:23:38;4.33;;;1.73;;
69053;SDS011;56125;52.242;4.756;2023-11-21T01:28:39;2.17;;;1.67;;
69053;SDS011;56125;52.242;4.756;2023-11-21T01:33:40;2.77;;;1.77;;
69053;SDS011;56125;52.242;4.756;2023-11-21T01:38:41;3.13;;;1.75;;
69053;SDS011;56125;52.242;4.756;2023-11-21T01:43:42;4.20;;;1.80;;
69053;SDS011;56125;52.242;4.756;2023-11-21T01:48:43;3.65;;;1.70;;
69053;SDS011;56125;52.242;4.756;2023-11-21T01:53:45;3.97;;;1.97;;
69053;SDS011;56125;52.242;4.756;2023-11-21T01:58:47;4.60;;;1.73;;
69053;SDS011;56125;52.242;4.756;2023-11-21T02:03:48;4.17;;;1.97;;
69053;SDS011;56125;52.242;4.756;2023-11-21T02:08:49;5.40;;;1.77;;
69053;SDS011;56125;52.242;4.756;2023-11-21T02:13:51;2.53;;;1.63;;
69053;SDS011;56125;52.242;4.756;2023-11-21T02:18:54;3.05;;;1.70;;
69053;SDS011;56125;52.242;4.756;2023-11-21T02:23:55;3.40;;;1.90;;
69053;SDS011;56125;52.242;4.756;2023-11-21T02:28:56;5.28;;;1.98;;
69053;SDS011;56125;52.242;4.756;2023-11-21T02:33:58;2.60;;;1.63;;
69053;SDS011;56125;52.242;4.756;2023-11-21T02:38:59;3.15;;;1.83;;
69053;SDS011;56125;52.242;4.756;2023-11-21T02:44:00;2.93;;;1.60;;
69053;SDS011;56125;52.242;4.756;2023-11-21T02:49:02;3.45;;;1.75;;
69053;SDS011;56125;52.242;4.756;2023-11-21T02:54:05;3.33;;;1.50;;
69053;SDS011;56125;52.242;4.756;2023-11-21T02:59:07;3.10;;;1.50;;
69053;SDS011;56125;52.242;4.756;2023-11-21T03:04:08;2.50;;;1.60;;
69053;SDS011;56125;52.242;4.756;2023-11-21T03:09:09;3.22;;;1.67;;
69053;SDS011;56125;52.242;4.756;2023-11-21T03:14:10;4.53;;;1.70;;
69053;SDS011;56125;52.242;4.756;2023-11-21T03:19:11;4.45;;;1.50;;
69053;SDS011;56125;52.242;4.756;2023-11-21T03:24:12;3.57;;;1.83;;
69053;SDS011;56125;52.242;4.756;2023-11-21T03:29:13;3.95;;;1.50;;
69053;SDS011;56125;52.242;4.756;2023-11-21T03:34:15;3.30;;;1.63;;
69053;SDS011;56125;52.242;4.756;2023-11-21T03:39:20;3.83;;;1.85;;
69053;SDS011;56125;52.242;4.756;2023-11-21T03:44:21;2.93;;;1.60;;
69053;SDS011;56125;52.242;4.756;2023-11-21T03:49:22;2.28;;;1.58;;
69053;SDS011;56125;52.242;4.756;2023-11-21T03:54:24;3.80;;;1.80;;
69053;SDS011;56125;52.242;4.756;2023-11-21T03:59:25;2.03;;;1.50;;
69053;SDS011;56125;52.242;4.756;2023-11-21T04:04:26;3.17;;;1.37;;
69053;SDS011;56125;52.242;4.756;2023-11-21T04:09:27;2.83;;;1.70;;
69053;SDS011;56125;52.242;4.756;2023-11-21T04:14:28;4.07;;;1.60;;
69053;SDS011;56125;52.242;4.756;2023-11-21T04:19:29;2.55;;;1.40;;
69053;SDS011;56125;52.242;4.756;2023-11-21T04:24:30;3.73;;;1.63;;
69053;SDS011;56125;52.242;4.756;2023-11-21T04:29:31;2.97;;;1.63;;
69053;SDS011;56125;52.242;4.756;2023-11-21T04:34:32;3.27;;;1.43;;
69053;SDS011;56125;52.242;4.756;2023-11-21T04:39:35;2.80;;;1.98;;
69053;SDS011;56125;52.242;4.756;2023-11-21T04:44:36;2.53;;;1.57;;
69053;SDS011;56125;52.242;4.756;2023-11-21T04:49:37;6.22;;;1.80;;
69053;SDS011;56125;52.242;4.756;2023-11-21T04:54:38;2.80;;;1.70;;
69053;SDS011;56125;52.242;4.756;2023-11-21T04:59:40;3.58;;;1.80;;
69053;SDS011;56125;52.242;4.756;2023-11-21T05:04:41;3.30;;;1.50;;
69053;SDS011;56125;52.242;4.756;2023-11-21T05:09:43;2.72;;;1.88;;
69053;SDS011;56125;52.242;4.756;2023-11-21T05:14:47;2.43;;;1.60;;
69053;SDS011;56125;52.242;4.756;2023-11-21T05:19:48;2.13;;;1.70;;
69053;SDS011;56125;52.242;4.756;2023-11-21T05:24:49;2.50;;;1.50;;
69053;SDS011;56125;52.242;4.756;2023-11-21T05:29:51;2.92;;;1.55;;
69053;SDS011;56125;52.242;4.756;2023-11-21T05:34:52;3.23;;;1.40;;
69053;SDS011;56125;52.242;4.756;2023-11-21T05:39:53;3.60;;;1.45;;
69053;SDS011;56125;52.242;4.756;2023-11-21T05:44:56;2.70;;;1.40;;
69053;SDS011;56125;52.242;4.756;2023-11-21T05:49:59;2.67;;;1.40;;
69053;SDS011;56125;52.242;4.756;2023-11-21T05:55:00;3.27;;;1.20;;
69053;SDS011;56125;52.242;4.756;2023-11-21T06:00:11;2.70;;;1.30;;
69053;SDS011;56125;52.242;4.756;2023-11-21T06:05:26;2.93;;;1.17;;
69053;SDS011;56125;52.242;4.756;2023-11-21T06:10:27;1.55;;;0.95;;
69053;SDS011;56125;52.242;4.756;2023-11-21T06:15:28;2.30;;;1.13;;
69053;SDS011;56125;52.242;4.756;2023-11-21T06:20:29;1.67;;;1.25;;
69053;SDS011;56125;52.242;4.756;2023-11-21T06:25:30;1.43;;;1.10;;
69053;SDS011;56125;52.242;4.756;2023-11-21T06:30:36;2.05;;;1.10;;
69053;SDS011;56125;52.242;4.756;2023-11-21T06:35:37;1.60;;;0.90;;
69053;SDS011;56125;52.242;4.756;2023-11-21T06:40:38;2.85;;;1.13;;
69053;SDS011;56125;52.242;4.756;2023-11-21T06:45:39;10.17;;;2.50;;
69053;SDS011;56125;52.242;4.756;2023-11-21T06:50:40;8.55;;;2.42;;
69053;SDS011;56125;52.242;4.756;2023-11-21T06:55:42;10.20;;;2.80;;
69053;SDS011;56125;52.242;4.756;2023-11-21T07:00:43;12.75;;;2.65;;
69053;SDS011;56125;52.242;4.756;2023-11-21T07:05:47;10.90;;;3.10;;
69053;SDS011;56125;52.242;4.756;2023-11-21T07:10:48;9.18;;;2.60;;
69053;SDS011;56125;52.242;4.756;2023-11-21T07:15:49;14.33;;;2.90;;
69053;SDS011;56125;52.242;4.756;2023-11-21T07:20:50;9.30;;;2.83;;
69053;SDS011;56125;52.242;4.756;2023-11-21T07:25:52;6.53;;;2.20;;
69053;SDS011;56125;52.242;4.756;2023-11-21T07:30:53;6.82;;;2.10;;
69053;SDS011;56125;52.242;4.756;2023-11-21T07:35:54;5.50;;;1.53;;
69053;SDS011;56125;52.242;4.756;2023-11-21T07:40:55;7.93;;;1.95;;
69053;SDS011;56125;52.242;4.756;2023-11-21T07:45:56;5.87;;;2.00;;
69053;SDS011;56125;52.242;4.756;2023-11-21T07:50:57;5.72;;;1.77;;
69053;SDS011;56125;52.242;4.756;2023-11-21T07:56:05;4.07;;;1.83;;
69053;SDS011;56125;52.242;4.756;2023-11-21T08:01:08;3.25;;;1.75;;
69053;SDS011;56125;52.242;4.756;2023-11-21T08:06:09;3.57;;;1.40;;
69053;SDS011;56125;52.242;4.756;2023-11-21T08:11:10;4.07;;;1.58;;
69053;SDS011;56125;52.242;4.756;2023-11-21T08:16:12;6.27;;;1.63;;
69053;SDS011;56125;52.242;4.756;2023-11-21T08:21:13;6.13;;;1.60;;
69053;SDS011;56125;52.242;4.756;2023-11-21T08:26:17;4.37;;;2.10;;
69053;SDS011;56125;52.242;4.756;2023-11-21T08:31:23;6.03;;;1.52;;
69053;SDS011;56125;52.242;4.756;2023-11-21T08:36:25;7.93;;;2.07;;
69053;SDS011;56125;52.242;4.756;2023-11-21T08:41:26;2.65;;;1.48;;
69053;SDS011;56125;52.242;4.756;2023-11-21T08:46:28;3.03;;;1.30;;
69053;SDS011;56125;52.242;4.756;2023-11-21T08:51:29;2.00;;;1.40;;
69053;SDS011;56125;52.242;4.756;2023-11-21T08:56:30;2.67;;;1.20;;
69053;SDS011;56125;52.242;4.756;2023-11-21T09:01:31;3.35;;;1.40;;
69053;SDS011;56125;52.242;4.756;2023-11-21T09:06:33;1.67;;;1.23;;
69053;SDS011;56125;52.242;4.756;2023-11-21T09:11:34;4.57;;;1.52;;
69053;SDS011;56125;52.242;4.756;2023-11-21T09:16:36;3.60;;;1.27;;
69053;SDS011;56125;52.242;4.756;2023-11-21T09:21:37;2.67;;;1.00;;
69053;SDS011;56125;52.242;4.756;2023-11-21T09:26:38;1.93;;;1.20;;
69053;SDS011;56125;52.242;4.756;2023-11-21T09:31:39;5.80;;;1.40;;
69053;SDS011;56125;52.242;4.756;2023-11-21T09:36:40;2.90;;;1.20;;
69053;SDS011;56125;52.242;4.756;2023-11-21T09:41:43;3.45;;;1.30;;
69053;SDS011;56125;52.242;4.756;2023-11-21T09:46:49;2.53;;;1.93;;
69053;SDS011;56125;52.242;4.756;2023-11-21T09:51:55;3.50;;;1.80;;
69053;SDS011;56125;52.242;4.756;2023-11-21T09:56:59;2.70;;;1.20;;
69053;SDS011;56125;52.242;4.756;2023-11-21T10:02:00;4.35;;;1.80;;
69053;SDS011;56125;52.242;4.756;2023-11-21T10:07:03;2.17;;;1.23;;
69053;SDS011;56125;52.242;4.756;2023-11-21T10:12:09;2.83;;;1.60;;
69053;SDS011;56125;52.242;4.756;2023-11-21T10:17:12;2.33;;;1.50;;
69053;SDS011;56125;52.242;4.756;2023-11-21T10:22:19;2.47;;;1.50;;
69053;SDS011;56125;52.242;4.756;2023-11-21T10:27:21;2.97;;;1.60;;
69053;SDS011;56125;52.242;4.756;2023-11-21T10:32:22;2.13;;;1.50;;
69053;SDS011;56125;52.242;4.756;2023-11-21T10:37:28;3.47;;;1.80;;
69053;SDS011;56125;52.242;4.756;2023-11-21T10:42:30;2.45;;;1.65;;
69053;SDS011;56125;52.242;4.756;2023-11-21T10:47:33;2.90;;;1.40;;
69053;SDS011;56125;52.242;4.756;2023-11-21T10:52:36;3.17;;;1.40;;
69053;SDS011;56125;52.242;4.756;2023-11-21T10:57:39;5.33;;;1.40;;
69053;SDS011;56125;52.242;4.756;2023-11-21T11:02:40;1.80;;;1.20;;
69053;SDS011;56125;52.242;4.756;2023-11-21T11:07:43;1.93;;;1.00;;
69053;SDS011;56125;52.242;4.756;2023-11-21T11:12:47;1.95;;;1.10;;
69053;SDS011;56125;52.242;4.756;2023-11-21T11:17:48;1.93;;;1.43;;
69053;SDS011;56125;52.242;4.756;2023-11-21T11:28:14;1.60;;;1.00;;
69053;SDS011;56125;52.242;4.756;2023-11-21T11:33:39;2.85;;;1.20;;
69053;SDS011;56125;52.242;4.756;2023-11-21T11:38:46;3.77;;;1.40;;
69053;SDS011;56125;52.242;4.756;2023-11-21T11:43:49;2.10;;;1.27;;
69053;SDS011;56125;52.242;4.756;2023-11-21T11:49:02;2.07;;;1.23;;
69053;SDS011;56125;52.242;4.756;2023-11-21T11:54:04;1.90;;;1.33;;
69053;SDS011;56125;52.242;4.756;2023-11-21T11:59:07;2.57;;;1.40;;
69053;SDS011;56125;52.242;4.756;2023-11-21T12:09:34;1.70;;;1.13;;
69053;SDS011;56125;52.242;4.756;2023-11-21T12:14:37;1.30;;;1.05;;
69053;SDS011;56125;52.242;4.756;2023-11-21T12:19:38;1.80;;;1.10;;
69053;SDS011;56125;52.242;4.756;2023-11-21T12:24:39;1.80;;;1.10;;
69053;SDS011;56125;52.242;4.756;2023-11-21T12:29:40;1.57;;;1.20;;
69053;SDS011;56125;52.242;4.756;2023-11-21T12:34:41;1.90;;;1.20;;
69053;SDS011;56125;52.242;4.756;2023-11-21T12:39:42;2.67;;;1.27;;
69053;SDS011;56125;52.242;4.756;2023-11-21T12:44:45;4.40;;;1.10;;
69053;SDS011;56125;52.242;4.756;2023-11-21T12:49:48;1.53;;;1.20;;
69053;SDS011;56125;52.242;4.756;2023-11-21T12:54:49;2.50;;;1.20;;
69053;SDS011;56125;52.242;4.756;2023-11-21T12:59:50;1.53;;;1.00;;
69053;SDS011;56125;52.242;4.756;2023-11-21T13:04:53;1.80;;;1.15;;
69053;SDS011;56125;52.242;4.756;2023-11-21T13:09:54;1.70;;;1.10;;
69053;SDS011;56125;52.242;4.756;2023-11-21T13:14:55;2.22;;;1.17;;
69053;SDS011;56125;52.242;4.756;2023-11-21T13:19:56;2.17;;;1.30;;
69053;SDS011;56125;52.242;4.756;2023-11-21T13:24:58;1.95;;;1.30;;
69053;SDS011;56125;52.242;4.756;2023-11-21T13:29:59;4.17;;;1.50;;
69053;SDS011;56125;52.242;4.756;2023-11-21T13:35:00;2.60;;;1.60;;
69053;SDS011;56125;52.242;4.756;2023-11-21T13:40:01;2.77;;;1.40;;
69053;SDS011;56125;52.242;4.756;2023-11-21T13:45:10;2.55;;;1.60;;
69053;SDS011;56125;52.242;4.756;2023-11-21T13:50:12;3.27;;;1.60;;
69053;SDS011;56125;52.242;4.756;2023-11-21T13:55:19;4.07;;;2.03;;
69053;SDS011;56125;52.242;4.756;2023-11-21T14:00:23;3.60;;;1.73;;
69053;SDS011;56125;52.242;4.756;2023-11-21T14:05:44;2.95;;;1.73;;
69053;SDS011;56125;52.242;4.756;2023-11-21T14:10:48;2.67;;;1.80;;
69053;SDS011;56125;52.242;4.756;2023-11-21T14:15:53;2.75;;;1.52;;
69053;SDS011;56125;52.242;4.756;2023-11-21T14:21:02;2.10;;;1.50;;
69053;SDS011;56125;52.242;4.756;2023-11-21T14:26:06;1.90;;;1.60;;
69053;SDS011;56125;52.242;4.756;2023-11-21T14:31:07;2.97;;;1.70;;
69053;SDS011;56125;52.242;4.756;2023-11-21T14:36:13;2.40;;;1.48;;
69053;SDS011;56125;52.242;4.756;2023-11-21T14:41:16;2.90;;;1.87;;
69053;SDS011;56125;52.242;4.756;2023-11-21T14:46:17;2.83;;;1.70;;
69053;SDS011;56125;52.242;4.756;2023-11-21T14:51:20;2.80;;;1.90;;
69053;SDS011;56125;52.242;4.756;2023-11-21T14:56:30;3.70;;;1.80;;
69053;SDS011;56125;52.242;4.756;2023-11-21T15:01:34;2.20;;;1.60;;
69053;SDS011;56125;52.242;4.756;2023-11-21T15:06:54;3.58;;;1.88;;
69053;SDS011;56125;52.242;4.756;2023-11-21T15:12:01;3.03;;;2.20;;
69053;SDS011;56125;52.242;4.756;2023-11-21T15:17:15;2.30;;;1.60;;
69053;SDS011;56125;52.242;4.756;2023-11-21T15:22:24;3.70;;;1.90;;
69053;SDS011;56125;52.242;4.756;2023-11-21T15:27:27;2.95;;;1.83;;
69053;SDS011;56125;52.242;4.756;2023-11-21T15:32:28;3.80;;;2.50;;
69053;SDS011;56125;52.242;4.756;2023-11-21T15:37:29;3.17;;;1.83;;
69053;SDS011;56125;52.242;4.756;2023-11-21T15:42:31;2.47;;;1.60;;
69053;SDS011;56125;52.242;4.756;2023-11-21T15:47:32;2.93;;;2.00;;
69053;SDS011;56125;52.242;4.756;2023-11-21T15:52:33;3.08;;;2.00;;
69053;SDS011;56125;52.242;4.756;2023-11-21T15:57:38;1.90;;;1.63;;
69053;SDS011;56125;52.242;4.756;2023-11-21T16:02:49;3.35;;;1.90;;
69053;SDS011;56125;52.242;4.756;2023-11-21T16:07:51;1.97;;;1.47;;
69053;SDS011;56125;52.242;4.756;2023-11-21T16:12:55;2.17;;;1.77;;
69053;SDS011;56125;52.242;4.756;2023-11-21T16:17:57;2.23;;;1.80;;
69053;SDS011;56125;52.242;4.756;2023-11-21T16:22:59;3.25;;;1.90;;
69053;SDS011;56125;52.242;4.756;2023-11-21T16:28:00;3.00;;;1.90;;
69053;SDS011;56125;52.242;4.756;2023-11-21T16:33:04;3.78;;;2.05;;
69053;SDS011;56125;52.242;4.756;2023-11-21T16:38:05;2.50;;;2.00;;
69053;SDS011;56125;52.242;4.756;2023-11-21T16:43:07;2.75;;;2.10;;
69053;SDS011;56125;52.242;4.756;2023-11-21T16:48:10;3.57;;;2.17;;
69053;SDS011;56125;52.242;4.756;2023-11-21T16:53:11;1.98;;;1.67;;
69053;SDS011;56125;52.242;4.756;2023-11-21T16:58:12;2.57;;;1.93;;
69053;SDS011;56125;52.242;4.756;2023-11-21T17:03:13;3.15;;;2.22;;
69053;SDS011;56125;52.242;4.756;2023-11-21T17:08:14;2.87;;;1.90;;
69053;SDS011;56125;52.242;4.756;2023-11-21T17:13:16;2.80;;;1.65;;
69053;SDS011;56125;52.242;4.756;2023-11-21T17:18:18;2.30;;;1.47;;
69053;SDS011;56125;52.242;4.756;2023-11-21T17:23:19;2.20;;;1.77;;
69053;SDS011;56125;52.242;4.756;2023-11-21T17:28:20;3.00;;;1.57;;
69053;SDS011;56125;52.242;4.756;2023-11-21T17:33:22;2.35;;;1.45;;
69053;SDS011;56125;52.242;4.756;2023-11-21T17:38:23;2.03;;;1.67;;
69053;SDS011;56125;52.242;4.756;2023-11-21T17:43:24;2.88;;;2.05;;
69053;SDS011;56125;52.242;4.756;2023-11-21T17:48:25;4.03;;;1.70;;
69053;SDS011;56125;52.242;4.756;2023-11-21T17:53:30;2.80;;;1.60;;
69053;SDS011;56125;52.242;4.756;2023-11-21T17:58:31;3.70;;;1.93;;
69053;SDS011;56125;52.242;4.756;2023-11-21T18:03:32;4.43;;;2.05;;
69053;SDS011;56125;52.242;4.756;2023-11-21T18:08:33;2.70;;;1.97;;
69053;SDS011;56125;52.242;4.756;2023-11-21T18:13:35;4.60;;;2.10;;
69053;SDS011;56125;52.242;4.756;2023-11-21T18:18:37;2.97;;;1.87;;
69053;SDS011;56125;52.242;4.756;2023-11-21T18:23:38;5.55;;;1.92;;
69053;SDS011;56125;52.242;4.756;2023-11-21T18:28:39;2.33;;;1.80;;
69053;SDS011;56125;52.242;4.756;2023-11-21T18:33:40;3.42;;;2.05;;
69053;SDS011;56125;52.242;4.756;2023-11-21T18:38:41;4.60;;;2.30;;
69053;SDS011;56125;52.242;4.756;2023-11-21T18:43:42;3.45;;;1.88;;
69053;SDS011;56125;52.242;4.756;2023-11-21T18:48:44;2.47;;;1.90;;
69053;SDS011;56125;52.242;4.756;2023-11-21T18:53:47;2.88;;;2.03;;
69053;SDS011;56125;52.242;4.756;2023-11-21T18:58:52;3.10;;;1.97;;
69053;SDS011;56125;52.242;4.756;2023-11-21T19:03:53;2.67;;;1.90;;
69053;SDS011;56125;52.242;4.756;2023-11-21T19:08:55;8.07;;;2.40;;
69053;SDS011;56125;52.242;4.756;2023-11-21T19:13:56;2.92;;;2.28;;
69053;SDS011;56125;52.242;4.756;2023-11-21T19:18:57;5.10;;;2.57;;
69053;SDS011;56125;52.242;4.756;2023-11-21T19:23:59;3.20;;;2.13;;
69053;SDS011;56125;52.242;4.756;2023-11-21T19:29:00;3.50;;;2.27;;
69053;SDS011;56125;52.242;4.756;2023-11-21T19:34:01;4.38;;;2.88;;
69053;SDS011;56125;52.242;4.756;2023-11-21T19:39:02;3.27;;;2.60;;
69053;SDS011;56125;52.242;4.756;2023-11-21T19:44:03;5.10;;;2.75;;
69053;SDS011;56125;52.242;4.756;2023-11-21T19:49:04;3.73;;;2.43;;
69053;SDS011;56125;52.242;4.756;2023-11-21T19:54:08;5.35;;;2.80;;
69053;SDS011;56125;52.242;4.756;2023-11-21T19:59:10;4.57;;;2.87;;
69053;SDS011;56125;52.242;4.756;2023-11-21T20:04:11;3.22;;;2.50;;
69053;SDS011;56125;52.242;4.756;2023-11-21T20:09:12;3.97;;;2.53;;
69053;SDS011;56125;52.242;4.756;2023-11-21T20:14:15;3.53;;;2.63;;
69053;SDS011;56125;52.242;4.756;2023-11-21T20:19:16;4.23;;;2.47;;
69053;SDS011;56125;52.242;4.756;2023-11-21T20:24:17;3.75;;;2.35;;
69053;SDS011;56125;52.242;4.756;2023-11-21T20:29:18;4.23;;;2.40;;
69053;SDS011;56125;52.242;4.756;2023-11-21T20:34:19;3.42;;;2.20;;
69053;SDS011;56125;52.242;4.756;2023-11-21T20:39:20;4.10;;;2.40;;
69053;SDS011;56125;52.242;4.756;2023-11-21T20:44:21;3.60;;;2.50;;
69053;SDS011;56125;52.242;4.756;2023-11-21T20:49:22;4.77;;;2.33;;
69053;SDS011;56125;52.242;4.756;2023-11-21T20:54:23;4.18;;;2.55;;
69053;SDS011;56125;52.242;4.756;2023-11-21T20:59:24;3.20;;;2.53;;
69053;SDS011;56125;52.242;4.756;2023-11-21T21:04:25;3.90;;;2.35;;
69053;SDS011;56125;52.242;4.756;2023-11-21T21:09:26;2.90;;;2.40;;
69053;SDS011;56125;52.242;4.756;2023-11-21T21:14:27;5.40;;;2.33;;
69053;SDS011;56125;52.242;4.756;2023-11-21T21:19:29;4.37;;;2.30;;
69053;SDS011;56125;52.242;4.756;2023-11-21T21:24:33;3.70;;;2.33;;
69053;SDS011;56125;52.242;4.756;2023-11-21T21:29:34;3.77;;;2.23;;
69053;SDS011;56125;52.242;4.756;2023-11-21T21:34:35;3.58;;;2.35;;
69053;SDS011;56125;52.242;4.756;2023-11-21T21:39:39;4.10;;;2.47;;
69053;SDS011;56125;52.242;4.756;2023-11-21T21:44:40;3.83;;;2.42;;
69053;SDS011;56125;52.242;4.756;2023-11-21T21:49:41;3.57;;;1.90;;
69053;SDS011;56125;52.242;4.756;2023-11-21T21:54:42;3.60;;;2.55;;
69053;SDS011;56125;52.242;4.756;2023-11-21T21:59:43;3.83;;;2.40;;
69053;SDS011;56125;52.242;4.756;2023-11-21T22:04:44;3.03;;;2.13;;
69053;SDS011;56125;52.242;4.756;2023-11-21T22:09:45;2.67;;;2.10;;
69053;SDS011;56125;52.242;4.756;2023-11-21T22:14:46;3.63;;;2.30;;
69053;SDS011;56125;52.242;4.756;2023-11-21T22:19:48;5.07;;;2.13;;
69053;SDS011;56125;52.242;4.756;2023-11-21T22:24:52;3.47;;;2.03;;
69053;SDS011;56125;52.242;4.756;2023-11-21T22:29:54;3.03;;;1.97;;
69053;SDS011;56125;52.242;4.756;2023-11-21T22:34:55;2.63;;;1.90;;
69053;SDS011;56125;52.242;4.756;2023-11-21T22:39:57;3.70;;;2.23;;
69053;SDS011;56125;52.242;4.756;2023-11-21T22:44:58;3.22;;;1.83;;
69053;SDS011;56125;52.242;4.756;2023-11-21T22:49:59;3.40;;;1.90;;
69053;SDS011;56125;52.242;4.756;2023-11-21T22:55:00;2.58;;;1.88;;
69053;SDS011;56125;52.242;4.756;2023-11-21T23:00:02;2.97;;;2.20;;
69053;SDS011;56125;52.242;4.756;2023-11-21T23:05:12;3.28;;;1.90;;
69053;SDS011;56125;52.242;4.756;2023-11-21T23:10:14;2.43;;;1.90;;
69053;SDS011;56125;52.242;4.756;2023-11-21T23:15:15;2.67;;;1.60;;
69053;SDS011;56125;52.242;4.756;2023-11-21T23:20:17;2.83;;;1.80;;
69053;SDS011;56125;52.242;4.756;2023-11-21T23:25:21;2.90;;;2.00;;
69053;SDS011;56125;52.242;4.756;2023-11-21T23:30:22;4.00;;;2.10;;
69053;SDS011;56125;52.242;4.756;2023-11-21T23:35:24;2.50;;;1.77;;
69053;SDS011;56125;52.242;4.756;2023-11-21T23:40:25;2.67;;;1.97;;
69053;SDS011;56125;52.242;4.756;2023-11-21T23:45:26;2.80;;;2.20;;
69053;SDS011;56125;52.242;4.756;2023-11-21T23:50:28;2.50;;;1.93;;
69053;SDS011;56125;52.242;4.756;2023-11-21T23:55:29;3.17;;;2.13;;
